createdAt,value
2023-04-29T00:02:10.836Z,93.17
2023-04-29T00:04:42.214Z,92.90
2023-04-29T00:07:15.781Z,93.03
2023-04-29T00:09:49.077Z,93.08
2023-04-29T00:12:19.975Z,92.96
2023-04-29T00:14:50.966Z,93.49
2023-04-29T00:17:21.742Z,93.26
2023-04-29T00:19:52.819Z,93.98
2023-04-29T00:22:24.175Z,93.71
2023-04-29T00:24:57.554Z,93.55
2023-04-29T00:27:28.376Z,93.31
2023-04-29T00:29:59.380Z,92.20
2023-04-29T00:32:30.308Z,90.45
2023-04-29T00:35:01.183Z,90.52
2023-04-29T00:37:34.931Z,91.11
2023-04-29T00:40:10.027Z,93.04
2023-04-29T00:42:40.801Z,95.08
2023-04-29T00:45:14.419Z,95.27
2023-04-29T00:47:45.290Z,94.88
2023-04-29T00:50:16.653Z,94.83
2023-04-29T00:52:48.634Z,94.97
2023-04-29T00:55:22.541Z,94.85
2023-04-29T00:57:54.050Z,94.70
2023-04-29T01:00:26.599Z,94.66
2023-04-29T01:02:58.073Z,94.67
2023-04-29T01:05:29.273Z,94.33
2023-04-29T01:08:12.086Z,93.90
2023-04-29T01:10:56.905Z,93.61
2023-04-29T01:13:33.947Z,93.79
2023-04-29T01:16:12.299Z,94.08
2023-04-29T01:18:46.299Z,94.30
2023-04-29T01:21:22.751Z,93.93
2023-04-29T01:23:56.703Z,94.45
2023-04-29T01:26:35.700Z,94.71
2023-04-29T01:29:27.712Z,95.68
2023-04-29T01:32:09.293Z,94.81
2023-04-29T01:34:48.145Z,95.41
2023-04-29T01:37:25.976Z,95.33
2023-04-29T01:40:08.643Z,94.98
2023-04-29T01:42:49.680Z,94.38
2023-04-29T01:45:24.556Z,94.65
2023-04-29T01:47:58.266Z,94.75
2023-04-29T01:50:30.787Z,94.76
2023-04-29T01:53:09.563Z,95.01
2023-04-29T01:55:44.189Z,94.66
2023-04-29T01:58:31.316Z,94.60
2023-04-29T02:01:15.699Z,94.49
2023-04-29T02:03:46.711Z,95.14
2023-04-29T02:06:19.422Z,94.50
2023-04-29T02:08:55.066Z,94.23
2023-04-29T02:11:28.519Z,93.48
2023-04-29T02:14:01.199Z,91.26
2023-04-29T02:16:32.053Z,90.79
2023-04-29T02:19:06.593Z,91.75
2023-04-29T02:21:40.235Z,95.12
2023-04-29T02:24:11.078Z,96.25
2023-04-29T02:26:44.505Z,96.23
2023-04-29T02:29:15.286Z,95.88
2023-04-29T02:31:48.209Z,95.91
2023-04-29T02:34:20.524Z,95.45
2023-04-29T02:36:51.367Z,95.27
2023-04-29T02:39:25.663Z,95.81
2023-04-29T02:42:02.133Z,95.58
2023-04-29T02:44:33.468Z,95.62
2023-04-29T02:47:04.848Z,95.24
2023-04-29T02:49:36.119Z,95.60
2023-04-29T02:52:07.105Z,95.38
2023-04-29T02:54:39.601Z,95.22
2023-04-29T02:57:12.919Z,95.04
2023-04-29T02:59:43.709Z,95.04
2023-04-29T03:02:15.308Z,95.22
2023-04-29T03:04:48.592Z,95.31
2023-04-29T03:07:19.993Z,95.94
2023-04-29T03:09:50.971Z,95.72
2023-04-29T03:12:24.526Z,95.44
2023-04-29T03:14:57.372Z,95.82
2023-04-29T03:17:28.310Z,95.67
2023-04-29T03:20:00.224Z,95.37
2023-04-29T03:22:31.105Z,95.48
2023-04-29T03:25:02.170Z,95.22
2023-04-29T03:27:37.974Z,95.73
2023-04-29T03:30:11.059Z,95.91
2023-04-29T03:32:48.571Z,95.31
2023-04-29T03:35:19.340Z,95.85
2023-04-29T03:38:26.315Z,96.58
2023-04-29T03:40:58.755Z,96.45
2023-04-29T03:43:32.366Z,96.81
2023-04-29T03:46:03.536Z,96.66
2023-04-29T03:48:34.335Z,96.11
2023-04-29T03:51:05.780Z,95.55
2023-04-29T03:53:37.586Z,95.68
2023-04-29T03:56:09.632Z,95.42
2023-04-29T03:58:43.821Z,95.47
2023-04-29T04:01:14.858Z,95.64
2023-04-29T04:03:49.187Z,95.55
2023-04-29T04:06:20.433Z,96.12
2023-04-29T04:08:51.963Z,95.91
2023-04-29T04:11:27.241Z,96.00
2023-04-29T04:14:06.227Z,95.99
2023-04-29T04:16:37.039Z,95.65
2023-04-29T04:19:08.264Z,95.52
2023-04-29T04:21:42.821Z,95.14
2023-04-29T04:24:14.441Z,94.95
2023-04-29T04:26:45.938Z,94.23
2023-04-29T04:29:28.052Z,94.42
2023-04-29T04:32:11.016Z,93.68
2023-04-29T04:34:42.837Z,93.79
2023-04-29T04:37:14.136Z,93.81
2023-04-29T04:39:47.888Z,93.33
2023-04-29T04:42:19.859Z,93.50
2023-04-29T04:44:56.166Z,93.46
2023-04-29T04:47:43.430Z,93.40
2023-04-29T04:50:25.038Z,93.04
2023-04-29T04:52:58.114Z,91.99
2023-04-29T04:55:50.244Z,91.43
2023-04-29T04:58:21.746Z,90.29
2023-04-29T05:00:55.521Z,88.83
2023-04-29T05:03:26.424Z,87.92
2023-04-29T05:05:58.821Z,87.28
2023-04-29T05:08:30.220Z,87.10
2023-04-29T05:11:03.474Z,87.17
2023-04-29T05:13:34.221Z,86.48
2023-04-29T05:16:09.633Z,86.20
2023-04-29T05:18:45.955Z,86.56
2023-04-29T05:21:17.846Z,86.11
2023-04-29T05:23:49.630Z,86.09
2023-04-29T05:26:20.537Z,88.82
2023-04-29T05:28:52.259Z,85.06
2023-04-29T05:31:28.832Z,81.56
2023-04-29T05:34:01.274Z,89.28
2023-04-29T05:36:32.220Z,86.99
2023-04-29T05:39:02.938Z,86.66
2023-04-29T05:41:33.986Z,86.71
2023-04-29T05:44:30.627Z,86.21
2023-04-29T05:47:04.190Z,85.87
2023-04-29T05:49:34.965Z,85.32
2023-04-29T05:52:06.915Z,84.18
2023-04-29T05:54:43.129Z,84.58
2023-04-29T05:57:13.854Z,84.30
2023-04-29T05:59:44.985Z,83.69
2023-04-29T06:02:18.417Z,83.38
2023-04-29T06:04:50.048Z,81.94
2023-04-29T06:07:39.007Z,80.86
2023-04-29T06:10:24.090Z,79.18
2023-04-29T06:12:54.975Z,79.13
2023-04-29T06:15:25.757Z,77.61
2023-04-29T06:17:59.119Z,77.87
2023-04-29T06:20:34.004Z,75.88
2023-04-29T06:23:05.730Z,74.76
2023-04-29T06:25:36.536Z,72.35
2023-04-29T06:28:10.352Z,70.04
2023-04-29T06:30:41.405Z,68.17
2023-04-29T06:33:15.607Z,61.60
2023-04-29T06:35:46.448Z,61.87
2023-04-29T06:38:43.491Z,58.18
2023-04-29T06:41:34.498Z,55.63
2023-04-29T06:44:23.699Z,53.59
2023-04-29T06:47:22.706Z,50.73
2023-04-29T06:50:13.574Z,48.21
2023-04-29T06:52:44.250Z,47.43
2023-04-29T06:55:15.142Z,44.62
2023-04-29T06:57:47.012Z,44.75
2023-04-29T07:00:21.393Z,43.64
2023-04-29T07:02:52.179Z,42.20
2023-04-29T07:05:26.005Z,39.99
2023-04-29T07:07:56.979Z,39.19
2023-04-29T07:10:29.999Z,38.20
2023-04-29T07:13:00.930Z,37.24
2023-04-29T07:15:32.881Z,36.25
2023-04-29T07:18:03.846Z,34.55
2023-04-29T07:20:40.102Z,34.49
2023-04-29T07:23:11.173Z,33.27
2023-04-29T07:25:42.009Z,32.24
2023-04-29T07:28:12.801Z,31.66
2023-04-29T07:30:43.593Z,31.92
2023-04-29T07:33:14.459Z,30.51
2023-04-29T07:35:47.877Z,30.29
2023-04-29T07:38:18.854Z,30.05
2023-04-29T07:40:49.599Z,28.75
2023-04-29T07:43:22.156Z,27.54
2023-04-29T07:45:53.327Z,27.26
2023-04-29T07:48:25.246Z,28.20
2023-04-29T07:51:00.584Z,28.96
2023-04-29T07:53:31.361Z,27.79
2023-04-29T07:56:02.233Z,27.67
2023-04-29T07:58:33.117Z,26.54
2023-04-29T08:01:09.593Z,26.17
2023-04-29T08:03:42.171Z,26.98
2023-04-29T08:06:18.663Z,27.03
2023-04-29T08:08:50.218Z,27.35
2023-04-29T08:11:26.462Z,27.61
2023-04-29T08:13:59.606Z,26.58
2023-04-29T08:16:30.840Z,26.49
2023-04-29T08:19:01.756Z,26.42
2023-04-29T08:21:35.923Z,26.00
2023-04-29T08:24:06.822Z,25.42
2023-04-29T08:26:37.550Z,24.73
2023-04-29T08:29:08.222Z,25.20
2023-04-29T08:31:39.167Z,24.56
2023-04-29T08:34:09.925Z,24.32
2023-04-29T08:36:43.417Z,24.61
2023-04-29T08:39:14.179Z,23.95
2023-04-29T08:41:49.668Z,23.65
2023-04-29T08:44:21.949Z,23.88
2023-04-29T08:46:53.235Z,22.82
2023-04-29T08:49:24.044Z,23.08
2023-04-29T08:51:57.518Z,22.44
2023-04-29T08:54:28.780Z,22.75
2023-04-29T08:57:01.156Z,23.96
2023-04-29T08:59:33.687Z,23.24
2023-04-29T09:02:04.563Z,23.29
2023-04-29T09:04:45.339Z,23.07
2023-04-29T09:07:19.889Z,23.32
2023-04-29T09:09:51.629Z,24.69
2023-04-29T09:12:22.437Z,24.73
2023-04-29T09:14:53.285Z,22.98
2023-04-29T09:17:42.522Z,22.94
2023-04-29T09:20:31.251Z,21.54
2023-04-29T09:23:06.738Z,22.96
2023-04-29T09:25:37.721Z,23.49
2023-04-29T09:28:18.916Z,23.22
2023-04-29T09:30:51.113Z,23.70
2023-04-29T09:33:21.927Z,23.94
2023-04-29T09:35:52.825Z,23.88
2023-04-29T09:38:26.221Z,23.73
2023-04-29T09:40:58.835Z,24.91
2023-04-29T09:43:31.009Z,25.65
2023-04-29T09:46:02.380Z,25.65
2023-04-29T09:48:36.773Z,24.10
2023-04-29T09:51:07.680Z,23.98
2023-04-29T09:53:41.060Z,25.14
2023-04-29T09:56:11.795Z,25.63
2023-04-29T09:58:42.643Z,25.60
2023-04-29T10:01:14.684Z,25.17
2023-04-29T10:03:47.052Z,25.00
2023-04-29T10:06:20.126Z,24.69
2023-04-29T10:08:54.487Z,24.71
2023-04-29T10:11:25.695Z,25.87
2023-04-29T10:13:56.593Z,24.61
2023-04-29T10:16:33.334Z,23.23
2023-04-29T10:19:07.980Z,21.84
2023-04-29T10:21:40.139Z,21.38
2023-04-29T10:24:15.194Z,20.86
2023-04-29T10:26:47.695Z,20.18
2023-04-29T10:29:22.702Z,20.04
2023-04-29T10:31:54.783Z,19.46
2023-04-29T10:34:26.862Z,20.09
2023-04-29T10:36:57.852Z,20.52
2023-04-29T10:39:53.726Z,20.48
2023-04-29T10:42:35.286Z,21.53
2023-04-29T10:45:25.448Z,21.52
2023-04-29T10:48:19.291Z,19.99
2023-04-29T10:51:07.976Z,20.19
2023-04-29T10:53:38.917Z,20.23
2023-04-29T10:56:13.944Z,20.78
2023-04-29T10:58:49.068Z,21.79
2023-04-29T11:01:20.922Z,21.48
2023-04-29T11:03:56.077Z,21.11
2023-04-29T11:06:28.307Z,20.22
2023-04-29T11:09:08.164Z,20.24
2023-04-29T11:11:50.369Z,20.88
2023-04-29T11:14:27.825Z,22.21
2023-04-29T11:17:01.407Z,21.96
2023-04-29T11:19:36.977Z,22.85
2023-04-29T11:22:27.647Z,21.85
2023-04-29T11:25:00.981Z,21.93
2023-04-29T11:27:42.989Z,21.97
2023-04-29T11:30:14.570Z,22.33
2023-04-29T11:32:45.905Z,22.84
2023-04-29T11:35:17.911Z,23.64
2023-04-29T11:37:50.092Z,23.41
2023-04-29T11:40:21.650Z,23.91
2023-04-29T11:42:55.034Z,24.59
2023-04-29T11:45:26.259Z,24.46
2023-04-29T11:47:57.096Z,25.12
2023-04-29T11:50:28.097Z,25.42
2023-04-29T11:53:01.695Z,25.97
2023-04-29T11:55:33.055Z,26.75
2023-04-29T11:58:07.978Z,26.72
2023-04-29T12:00:39.119Z,26.72
2023-04-29T12:03:18.075Z,27.04
2023-04-29T12:05:51.222Z,27.28
2023-04-29T12:08:23.399Z,27.67
2023-04-29T12:10:54.953Z,27.40
2023-04-29T12:13:31.490Z,27.21
2023-04-29T12:16:02.786Z,27.77
2023-04-29T12:18:33.629Z,27.80
2023-04-29T12:21:04.511Z,27.60
2023-04-29T12:23:35.248Z,27.56
2023-04-29T12:26:06.045Z,28.15
2023-04-29T12:28:39.426Z,27.93
2023-04-29T12:31:12.232Z,27.61
2023-04-29T12:33:46.899Z,27.99
2023-04-29T12:36:21.878Z,27.86
2023-04-29T12:38:54.915Z,28.22
2023-04-29T12:41:40.393Z,27.27
2023-04-29T12:44:14.009Z,28.14
2023-04-29T12:46:45.082Z,28.38
2023-04-29T12:49:15.941Z,27.49
2023-04-29T12:51:46.686Z,27.43
2023-04-29T12:54:17.512Z,28.25
2023-04-29T12:56:49.190Z,28.08
2023-04-29T12:59:22.864Z,28.21
2023-04-29T13:01:53.749Z,28.34
2023-04-29T13:04:24.684Z,28.29
2023-04-29T13:07:00.743Z,28.45
2023-04-29T13:09:31.815Z,28.87
2023-04-29T13:12:03.262Z,28.94
2023-04-29T13:14:36.505Z,28.99
2023-04-29T13:17:07.686Z,28.39
2023-04-29T13:19:48.145Z,29.11
2023-04-29T13:22:22.752Z,28.67
2023-04-29T13:24:53.823Z,27.65
2023-04-29T13:27:24.840Z,27.32
2023-04-29T13:29:58.378Z,27.50
2023-04-29T13:32:41.931Z,27.41
2023-04-29T13:35:15.705Z,27.68
2023-04-29T13:37:46.896Z,27.61
2023-04-29T13:40:20.975Z,28.15
2023-04-29T13:43:02.058Z,28.32
2023-04-29T13:45:41.148Z,27.92
2023-04-29T13:48:34.848Z,28.40
2023-04-29T13:51:48.057Z,27.96
2023-04-29T13:57:23.149Z,28.14
2023-04-29T14:02:23.344Z,27.76
2023-04-29T14:04:47.087Z,27.94
2023-04-29T14:07:17.889Z,28.59
2023-04-29T14:09:49.695Z,28.55
2023-04-29T14:12:20.469Z,28.80
2023-04-29T14:14:51.205Z,29.25
2023-04-29T14:17:24.534Z,29.02
2023-04-29T14:19:55.547Z,29.35
2023-04-29T14:22:27.721Z,29.94
2023-04-29T14:24:58.461Z,29.87
2023-04-29T14:27:29.538Z,30.02
2023-04-29T14:30:00.309Z,29.47
2023-04-29T14:32:34.229Z,29.48
2023-04-29T14:35:05.438Z,29.77
2023-04-29T14:37:36.859Z,30.10
2023-04-29T14:40:09.652Z,30.35
2023-04-29T14:42:40.334Z,30.42
2023-04-29T14:45:12.704Z,30.60
2023-04-29T14:47:47.010Z,30.60
2023-04-29T14:50:18.198Z,31.18
2023-04-29T14:52:48.987Z,31.01
2023-04-29T14:55:19.908Z,30.77
2023-04-29T14:57:51.850Z,31.08
2023-04-29T15:00:22.752Z,31.17
2023-04-29T15:02:57.430Z,31.09
2023-04-29T15:05:28.390Z,30.50
2023-04-29T15:08:00.552Z,30.06
2023-04-29T15:10:31.851Z,30.66
2023-04-29T15:13:02.862Z,30.56
2023-04-29T15:15:34.056Z,30.75
2023-04-29T15:18:09.259Z,30.93
2023-04-29T15:20:41.106Z,31.11
2023-04-29T15:23:11.933Z,31.32
2023-04-29T15:25:42.687Z,31.14
2023-04-29T15:28:13.412Z,31.58
2023-04-29T15:30:44.166Z,31.67
2023-04-29T15:33:17.716Z,31.76
2023-04-29T15:35:48.492Z,31.63
2023-04-29T15:38:19.241Z,31.59
2023-04-29T15:40:50.308Z,31.59
2023-04-29T15:43:22.714Z,32.17
2023-04-29T15:45:54.230Z,32.48
2023-04-29T15:48:27.706Z,32.68
2023-04-29T15:50:58.561Z,32.46
2023-04-29T15:53:29.327Z,32.32
2023-04-29T15:56:00.174Z,31.90
2023-04-29T15:58:30.941Z,32.21
2023-04-29T16:01:01.632Z,31.72
2023-04-29T16:03:35.244Z,31.30
2023-04-29T16:06:06.524Z,31.48
2023-04-29T16:08:37.320Z,31.89
2023-04-29T16:11:08.308Z,31.96
2023-04-29T16:13:39.179Z,32.18
2023-04-29T16:16:10.594Z,32.29
2023-04-29T16:18:43.898Z,32.39
2023-04-29T16:21:14.759Z,32.51
2023-04-29T16:23:45.505Z,33.05
2023-04-29T16:26:16.275Z,33.44
2023-04-29T16:28:47.011Z,33.04
2023-04-29T16:31:19.661Z,32.97
2023-04-29T16:33:53.171Z,32.67
2023-04-29T16:36:23.954Z,32.83
2023-04-29T16:38:54.742Z,33.17
2023-04-29T16:41:26.451Z,33.05
2023-04-29T16:43:57.204Z,33.08
2023-04-29T16:46:28.321Z,33.05
2023-04-29T16:49:01.887Z,33.66
2023-04-29T16:51:33.757Z,33.94
2023-04-29T16:54:04.498Z,33.66
2023-04-29T16:56:35.244Z,33.96
2023-04-29T16:59:06.024Z,34.14
2023-04-29T17:01:36.859Z,34.52
2023-04-29T17:04:10.925Z,34.90
2023-04-29T17:06:41.934Z,35.30
2023-04-29T17:09:12.769Z,35.72
2023-04-29T17:11:43.543Z,35.71
2023-04-29T17:14:15.958Z,35.87
2023-04-29T17:16:46.714Z,35.82
2023-04-29T17:19:20.360Z,35.78
2023-04-29T17:21:51.048Z,35.85
2023-04-29T17:24:21.819Z,36.29
2023-04-29T17:26:52.564Z,36.29
2023-04-29T17:29:23.316Z,36.49
2023-04-29T17:32:02.389Z,36.68
2023-04-29T17:34:37.707Z,37.10
2023-04-29T17:37:09.651Z,37.11
2023-04-29T17:39:40.431Z,37.34
2023-04-29T17:42:11.140Z,37.47
2023-04-29T17:44:42.459Z,37.78
2023-04-29T17:47:13.246Z,37.99
2023-04-29T17:49:46.704Z,38.40
2023-04-29T17:52:17.889Z,38.06
2023-04-29T17:54:48.853Z,38.30
2023-04-29T17:57:19.612Z,38.54
2023-04-29T17:59:50.467Z,38.85
2023-04-29T18:02:21.299Z,39.04
2023-04-29T18:04:55.302Z,39.63
2023-04-29T18:07:26.241Z,40.14
2023-04-29T18:09:57.330Z,40.57
2023-04-29T18:12:28.405Z,40.66
2023-04-29T18:14:59.082Z,41.18
2023-04-29T18:17:29.935Z,41.31
2023-04-29T18:20:04.229Z,41.58
2023-04-29T18:22:35.759Z,41.50
2023-04-29T18:25:06.555Z,41.82
2023-04-29T18:27:37.379Z,41.78
2023-04-29T18:30:09.693Z,42.00
2023-04-29T18:32:41.341Z,42.22
2023-04-29T18:35:15.323Z,42.75
2023-04-29T18:37:46.089Z,42.93
2023-04-29T18:40:16.936Z,42.64
2023-04-29T18:42:47.831Z,42.69
2023-04-29T18:45:21.029Z,43.07
2023-04-29T18:47:52.027Z,43.33
2023-04-29T18:50:25.555Z,43.82
2023-04-29T18:52:56.738Z,43.90
2023-04-29T18:55:27.567Z,43.65
2023-04-29T18:57:58.427Z,43.70
2023-04-29T19:00:29.292Z,43.92
2023-04-29T19:03:00.187Z,43.89
2023-04-29T19:05:33.813Z,44.40
2023-04-29T19:08:04.930Z,44.37
2023-04-29T19:10:36.027Z,44.61
2023-04-29T19:13:07.344Z,44.92
2023-04-29T19:15:38.486Z,45.31
2023-04-29T19:18:09.508Z,45.00
2023-04-29T19:20:44.083Z,45.19
2023-04-29T19:23:14.760Z,45.50
2023-04-29T19:25:45.690Z,45.71
2023-04-29T19:28:16.490Z,45.76
2023-04-29T19:30:47.277Z,45.99
2023-04-29T19:33:18.191Z,46.23
2023-04-29T19:35:51.534Z,46.36
2023-04-29T19:38:22.299Z,46.42
2023-04-29T19:40:53.058Z,46.35
2023-04-29T19:43:23.840Z,46.91
2023-04-29T19:45:54.555Z,46.97
2023-04-29T19:48:25.692Z,47.00
2023-04-29T19:50:59.870Z,47.34
2023-04-29T19:53:31.000Z,47.38
2023-04-29T19:56:01.819Z,47.44
2023-04-29T19:58:33.408Z,47.59
2023-04-29T20:01:04.232Z,47.66
2023-04-29T20:03:39.507Z,47.93
2023-04-29T20:06:13.129Z,47.96
2023-04-29T20:08:43.927Z,47.86
2023-04-29T20:11:14.651Z,48.08
2023-04-29T20:13:46.149Z,48.36
2023-04-29T20:16:17.108Z,48.71
2023-04-29T20:18:48.212Z,48.52
2023-04-29T20:21:21.612Z,49.42
2023-04-29T20:23:52.720Z,49.44
2023-04-29T20:26:23.452Z,49.81
2023-04-29T20:28:54.309Z,49.24
2023-04-29T20:31:25.091Z,49.77
2023-04-29T20:33:56.731Z,49.89
2023-04-29T20:36:30.632Z,50.05
2023-04-29T20:39:01.806Z,49.93
2023-04-29T20:41:32.559Z,50.49
2023-04-29T20:44:03.497Z,50.30
2023-04-29T20:46:34.656Z,50.68
2023-04-29T20:49:06.704Z,50.68
2023-04-29T20:51:40.135Z,50.92
2023-04-29T20:54:11.104Z,50.89
2023-04-29T20:56:41.773Z,51.32
2023-04-29T20:59:12.754Z,51.33
2023-04-29T21:01:43.576Z,51.61
2023-04-29T21:04:14.674Z,51.71
2023-04-29T21:06:48.012Z,51.83
2023-04-29T21:09:18.932Z,52.06
2023-04-29T21:11:49.618Z,52.20
2023-04-29T21:14:20.588Z,52.36
2023-04-29T21:16:51.267Z,52.60
2023-04-29T21:19:22.044Z,52.54
2023-04-29T21:21:55.389Z,52.83
2023-04-29T21:24:27.240Z,52.79
2023-04-29T21:26:57.932Z,53.02
2023-04-29T21:29:28.818Z,53.41
2023-04-29T21:31:59.632Z,53.30
2023-04-29T21:34:30.426Z,53.40
2023-04-29T21:37:03.778Z,53.70
2023-04-29T21:39:35.161Z,53.64
2023-04-29T21:42:06.513Z,54.04
2023-04-29T21:44:37.701Z,54.15
2023-04-29T21:47:08.502Z,54.37
2023-04-29T21:49:39.499Z,54.37
2023-04-29T21:52:12.948Z,54.55
2023-04-29T21:54:43.825Z,54.64
2023-04-29T21:57:14.474Z,54.84
2023-04-29T21:59:45.313Z,55.00
2023-04-29T22:02:23.003Z,54.87
2023-04-29T22:04:54.556Z,55.05
2023-04-29T22:07:27.863Z,55.12
2023-04-29T22:09:58.834Z,55.04
2023-04-29T22:12:29.741Z,55.14
2023-04-29T22:15:00.734Z,55.09
2023-04-29T22:17:31.555Z,55.56
2023-04-29T22:20:02.431Z,55.63
2023-04-29T22:22:37.719Z,55.69
2023-04-29T22:25:09.970Z,56.14
2023-04-29T22:27:40.882Z,56.23
2023-04-29T22:30:12.900Z,55.99
2023-04-29T22:32:43.926Z,56.38
2023-04-29T22:35:14.677Z,56.60
2023-04-29T22:37:48.067Z,56.71
2023-04-29T22:40:18.823Z,56.49
2023-04-29T22:42:51.125Z,56.67
2023-04-29T22:45:21.807Z,56.89
2023-04-29T22:47:52.606Z,56.88
2023-04-29T22:50:23.398Z,57.27
2023-04-29T22:52:56.761Z,57.38
2023-04-29T22:55:27.728Z,57.20
2023-04-29T22:57:58.469Z,57.58
2023-04-29T23:00:29.187Z,59.44
2023-04-29T23:03:00.155Z,56.74
2023-04-29T23:05:31.876Z,57.18
2023-04-29T23:08:05.780Z,62.36
2023-04-29T23:10:36.563Z,64.21
2023-04-29T23:13:07.615Z,68.65
2023-04-29T23:15:38.516Z,73.07
2023-04-29T23:18:09.386Z,76.44
2023-04-29T23:20:40.273Z,78.88
2023-04-29T23:23:13.781Z,79.66
2023-04-29T23:25:45.606Z,80.23
2023-04-29T23:28:17.023Z,80.28
2023-04-29T23:30:49.949Z,80.34
2023-04-29T23:33:20.684Z,79.90
2023-04-29T23:35:52.796Z,79.44
2023-04-29T23:38:26.313Z,79.33
2023-04-29T23:40:57.087Z,78.95
2023-04-29T23:43:27.859Z,79.33
2023-04-29T23:45:58.738Z,78.88
2023-04-29T23:48:29.572Z,77.99
2023-04-29T23:51:00.286Z,78.91
2023-04-29T23:53:33.667Z,81.57
2023-04-29T23:56:04.395Z,81.38
2023-04-29T23:58:35.243Z,84.14
